Time;durP1;ratioP1;P1;durP2;ratioP2;P2;SDS_P1;SDS_P2;PMS_P1;PMS_P2;Temp;Humidity;BMP_temperature;BMP_pressure;BME280_temperature;BME280_humidity;BME280_pressure;Samples;Min_cycle;Max_cycle;Signal;HPM_P1;HPM_P2
2022/08/30 00:03:06;;;;;;;;;;;25.60;50.40;;;;;;5111412;28;19957;-60
2022/08/30 00:05:32;;;;;;;;;;;25.70;50.50;;;;;;5090698;28;20377;-60
2022/08/30 00:07:57;;;;;;;;;;;25.70;50.50;;;;;;5110619;28;19918;-60
2022/08/30 00:10:23;;;;;;;;;;;25.70;50.50;;;;;;5086783;28;19912;-60
2022/08/30 00:12:48;;;;;;;;;;;25.70;50.50;;;;;;5088135;28;20007;-60
2022/08/30 00:15:14;;;;;;;;;;;25.70;50.50;;;;;;5108974;28;19935;-60
2022/08/30 00:17:39;;;;;;;;;;;25.70;50.50;;;;;;5073511;28;19915;-60
2022/08/30 00:20:06;;;;;;;;;;;25.60;50.40;;;;;;5087192;28;19916;-60
2022/08/30 00:22:31;;;;;;;;;;;25.70;50.40;;;;;;5109029;28;19916;-60
2022/08/30 00:24:59;;;;;;;;;;;25.70;50.30;;;;;;5108033;28;19912;-60
2022/08/30 00:27:28;;;;;;;;;;;25.70;50.40;;;;;;5087883;28;19973;-60
2022/08/30 00:29:53;;;;;;;;;;;25.70;50.40;;;;;;5109032;28;19912;-60
2022/08/30 00:32:20;;;;;;;;;;;25.60;50.30;;;;;;5075685;28;20265;-60
2022/08/30 00:34:46;;;;;;;;;;;25.60;50.40;;;;;;5091603;28;19919;-61
2022/08/30 00:37:12;;;;;;;;;;;25.60;50.40;;;;;;5108982;28;20340;-60
2022/08/30 00:39:37;;;;;;;;;;;25.60;50.30;;;;;;5109387;28;20010;-60
2022/08/30 00:42:02;;;;;;;;;;;25.60;50.40;;;;;;5110760;28;19916;-60
2022/08/30 00:44:28;;;;;;;;;;;25.60;50.30;;;;;;5103250;28;20337;-60
2022/08/30 00:46:53;;;;;;;;;;;25.60;50.30;;;;;;5106597;28;19959;-60
2022/08/30 00:49:19;;;;;;;;;;;25.60;50.30;;;;;;5102963;28;20280;-60
2022/08/30 00:51:44;;;;;;;;;;;25.60;50.30;;;;;;5112400;28;20292;-60
2022/08/30 00:54:10;;;;;;;;;;;25.60;50.30;;;;;;5112953;27;19919;-60
2022/08/30 00:56:35;;;;;;;;;;;25.60;50.20;;;;;;5112838;28;19969;-61
2022/08/30 00:59:01;;;;;;;;;;;25.60;50.20;;;;;;5096018;28;20006;-60
2022/08/30 01:01:26;;;;;;;;;;;25.60;50.20;;;;;;5072015;28;19920;-60
2022/08/30 01:03:52;;;;;;;;;;;25.60;50.20;;;;;;5114572;28;19911;-60
2022/08/30 01:06:17;;;;;;;;;;;25.50;50.30;;;;;;5113054;28;20352;-60
2022/08/30 01:08:43;;;;;;;;;;;25.50;50.30;;;;;;5112556;28;20340;-60
2022/08/30 01:11:09;;;;;;;;;;;25.50;50.20;;;;;;5094931;28;20006;-60
2022/08/30 01:13:34;;;;;;;;;;;25.60;50.20;;;;;;5094041;28;19916;-60
2022/08/30 01:16:00;;;;;;;;;;;25.60;50.20;;;;;;5107307;28;19919;-60
2022/08/30 01:18:26;;;;;;;;;;;25.60;50.10;;;;;;5111510;28;20012;-60
2022/08/30 01:21:02;;;;;;;;;;;25.50;50.10;;;;;;5094983;28;20290;-60
2022/08/30 01:23:27;;;;;;;;;;;25.50;50.30;;;;;;5112876;28;19912;-60
2022/08/30 01:25:53;;;;;;;;;;;25.50;50.20;;;;;;5112028;28;19915;-60
2022/08/30 01:28:19;;;;;;;;;;;25.50;50.10;;;;;;5096671;28;19912;-60
2022/08/30 01:30:45;;;;;;;;;;;25.50;50.20;;;;;;5112690;28;19915;-60
2022/08/30 01:33:11;;;;;;;;;;;25.50;50.40;;;;;;5108004;28;19931;-60
2022/08/30 01:35:56;;;;;;;;;;;25.40;50.40;;;;;;5110559;28;19978;-60
2022/08/30 01:38:22;;;;;;;;;;;25.40;50.40;;;;;;5083634;28;20276;-60
2022/08/30 01:40:48;;;;;;;;;;;25.40;50.30;;;;;;5094681;28;20302;-60
2022/08/30 01:43:14;;;;;;;;;;;25.40;50.30;;;;;;5078891;28;19916;-61
2022/08/30 01:45:39;;;;;;;;;;;25.40;50.30;;;;;;5093903;28;19912;-60
2022/08/30 01:48:05;;;;;;;;;;;25.40;50.20;;;;;;5113090;28;19911;-60
2022/08/30 01:50:30;;;;;;;;;;;25.40;50.20;;;;;;5105255;27;19923;-60
2022/08/30 01:52:56;;;;;;;;;;;25.50;50.20;;;;;;5112742;28;19922;-60
2022/08/30 01:55:22;;;;;;;;;;;25.50;50.10;;;;;;5111256;28;19958;-60
2022/08/30 01:57:48;;;;;;;;;;;25.50;50.10;;;;;;5112174;28;19912;-61
2022/08/30 02:00:14;;;;;;;;;;;25.50;50.10;;;;;;5077718;28;19912;-60
2022/08/30 02:02:39;;;;;;;;;;;25.50;50.00;;;;;;5112542;28;19918;-60
2022/08/30 02:05:05;;;;;;;;;;;25.50;50.00;;;;;;5107001;28;19969;-60
2022/08/30 02:07:31;;;;;;;;;;;25.50;50.00;;;;;;5108239;28;20014;-60
2022/08/30 02:09:56;;;;;;;;;;;25.50;50.00;;;;;;5106921;28;19916;-60
2022/08/30 02:12:22;;;;;;;;;;;25.50;50.00;;;;;;5094241;28;19916;-60
2022/08/30 02:14:47;;;;;;;;;;;25.40;49.90;;;;;;5112876;28;19930;-60
2022/08/30 02:17:13;;;;;;;;;;;25.40;49.90;;;;;;5111089;28;19916;-60
2022/08/30 02:19:38;;;;;;;;;;;25.40;49.90;;;;;;5112555;28;19975;-60
2022/08/30 02:22:04;;;;;;;;;;;25.40;50.00;;;;;;5089243;28;19916;-60
2022/08/30 02:24:30;;;;;;;;;;;25.40;50.00;;;;;;5093740;28;19911;-61
2022/08/30 02:26:55;;;;;;;;;;;25.40;49.90;;;;;;5111780;28;20501;-60
2022/08/30 02:29:21;;;;;;;;;;;25.40;50.00;;;;;;5112440;28;19959;-60
2022/08/30 02:31:46;;;;;;;;;;;25.40;49.90;;;;;;5075038;28;19922;-61
2022/08/30 02:34:11;;;;;;;;;;;25.30;50.00;;;;;;5093953;28;20374;-61
2022/08/30 02:36:39;;;;;;;;;;;25.30;50.10;;;;;;5091278;28;19919;-60
2022/08/30 02:39:05;;;;;;;;;;;25.30;50.10;;;;;;5085884;28;19912;-60
2022/08/30 02:41:30;;;;;;;;;;;25.30;50.10;;;;;;5109660;28;19919;-60
2022/08/30 02:43:58;;;;;;;;;;;25.30;50.00;;;;;;5108004;28;20382;-60
2022/08/30 02:46:23;;;;;;;;;;;25.40;50.00;;;;;;5110725;28;19939;-60
2022/08/30 02:48:49;;;;;;;;;;;25.30;50.10;;;;;;5104403;28;20397;-60
2022/08/30 02:51:14;;;;;;;;;;;25.30;50.00;;;;;;5111690;28;19912;-60
2022/08/30 02:53:40;;;;;;;;;;;25.30;50.10;;;;;;5090806;28;19924;-60
2022/08/30 02:56:06;;;;;;;;;;;25.30;50.20;;;;;;5085019;28;19919;-60
2022/08/30 02:58:31;;;;;;;;;;;25.30;50.10;;;;;;5092510;28;19959;-61
2022/08/30 03:00:57;;;;;;;;;;;25.30;50.10;;;;;;5108514;28;20367;-61
2022/08/30 03:03:22;;;;;;;;;;;25.30;50.00;;;;;;5111822;28;20281;-61
2022/08/30 03:05:48;;;;;;;;;;;25.30;50.00;;;;;;5110906;28;19934;-60
2022/08/30 03:08:13;;;;;;;;;;;25.30;50.00;;;;;;5110043;28;19961;-60
2022/08/30 03:10:39;;;;;;;;;;;25.30;50.00;;;;;;5089388;28;19916;-60
2022/08/30 03:13:06;;;;;;;;;;;25.30;49.90;;;;;;5085171;28;19911;-60
2022/08/30 03:15:32;;;;;;;;;;;25.30;50.00;;;;;;5047670;28;20324;-60
2022/08/30 03:17:57;;;;;;;;;;;25.30;50.10;;;;;;5089989;28;19918;-60
2022/08/30 03:20:23;;;;;;;;;;;25.30;50.20;;;;;;5090713;28;20354;-60
2022/08/30 03:22:48;;;;;;;;;;;25.20;50.30;;;;;;5090675;28;19916;-61
2022/08/30 03:25:14;;;;;;;;;;;25.20;50.30;;;;;;5090017;28;20347;-60
2022/08/30 03:27:39;;;;;;;;;;;25.20;50.40;;;;;;5085873;28;20010;-60
2022/08/30 03:30:05;;;;;;;;;;;25.20;50.40;;;;;;5085580;28;19966;-61
2022/08/30 03:32:31;;;;;;;;;;;25.20;50.50;;;;;;5089784;28;19938;-61
2022/08/30 03:34:56;;;;;;;;;;;25.20;50.50;;;;;;5090646;28;19927;-61
2022/08/30 03:37:22;;;;;;;;;;;25.20;50.40;;;;;;5085743;28;19956;-60
2022/08/30 03:39:47;;;;;;;;;;;25.20;50.30;;;;;;5089254;28;20011;-60
2022/08/30 03:42:13;;;;;;;;;;;25.30;50.30;;;;;;5089864;28;19919;-60
2022/08/30 03:44:39;;;;;;;;;;;25.30;50.30;;;;;;5065715;28;19936;-61
2022/08/30 03:47:04;;;;;;;;;;;25.30;50.40;;;;;;5090717;28;19919;-60
2022/08/30 03:49:30;;;;;;;;;;;25.20;50.40;;;;;;5090251;28;19916;-60
2022/08/30 03:51:56;;;;;;;;;;;25.30;50.40;;;;;;5071324;28;20030;-60
2022/08/30 03:54:21;;;;;;;;;;;25.20;50.50;;;;;;5090938;28;20010;-59
2022/08/30 03:56:46;;;;;;;;;;;25.20;50.50;;;;;;5090787;28;19912;-60
2022/08/30 03:59:12;;;;;;;;;;;25.20;50.60;;;;;;5089498;28;20011;-60
2022/08/30 04:01:37;;;;;;;;;;;25.20;50.50;;;;;;5081638;28;19916;-60
2022/08/30 04:04:03;;;;;;;;;;;25.20;50.60;;;;;;5090803;28;20395;-60
2022/08/30 04:06:28;;;;;;;;;;;25.10;50.70;;;;;;5089316;28;20368;-60
2022/08/30 04:08:54;;;;;;;;;;;25.10;50.70;;;;;;5080190;28;19916;-60
2022/08/30 04:11:20;;;;;;;;;;;25.20;50.70;;;;;;5050335;28;19927;-60
2022/08/30 04:13:46;;;;;;;;;;;25.10;50.80;;;;;;5073624;28;20268;-60
2022/08/30 04:16:12;;;;;;;;;;;25.10;50.70;;;;;;5084645;28;20295;-60
2022/08/30 04:18:37;;;;;;;;;;;25.10;50.80;;;;;;5089441;28;19923;-60
2022/08/30 04:21:03;;;;;;;;;;;25.20;50.70;;;;;;5108407;28;20363;-60
2022/08/30 04:23:28;;;;;;;;;;;25.10;50.80;;;;;;5087976;28;19915;-60
2022/08/30 04:25:54;;;;;;;;;;;25.10;50.80;;;;;;5112709;28;20265;-60
2022/08/30 04:28:19;;;;;;;;;;;25.10;50.80;;;;;;5096571;28;20252;-60
2022/08/30 04:30:45;;;;;;;;;;;25.10;50.80;;;;;;5095652;28;20345;-61
2022/08/30 04:33:10;;;;;;;;;;;25.10;50.90;;;;;;5101361;28;19927;-60
2022/08/30 04:35:38;;;;;;;;;;;25.10;50.80;;;;;;5093716;28;19922;-60
2022/08/30 04:38:04;;;;;;;;;;;25.10;50.80;;;;;;5114396;28;20290;-60
2022/08/30 04:40:29;;;;;;;;;;;25.10;50.80;;;;;;5093741;28;20014;-60
2022/08/30 04:42:55;;;;;;;;;;;25.10;50.90;;;;;;5114482;28;19918;-60
2022/08/30 04:45:20;;;;;;;;;;;25.10;51.00;;;;;;5110091;28;19912;-60
2022/08/30 04:47:46;;;;;;;;;;;25.10;51.00;;;;;;5111774;28;20363;-60
2022/08/30 04:50:12;;;;;;;;;;;25.10;50.90;;;;;;5109541;28;19912;-60
2022/08/30 04:52:37;;;;;;;;;;;25.00;51.00;;;;;;5095732;28;19918;-61
2022/08/30 04:55:03;;;;;;;;;;;25.00;51.10;;;;;;5109673;28;20283;-60
2022/08/30 04:57:28;;;;;;;;;;;25.10;51.10;;;;;;5079481;28;19976;-60
2022/08/30 04:59:54;;;;;;;;;;;25.10;50.90;;;;;;5111224;28;19907;-60
2022/08/30 05:02:19;;;;;;;;;;;25.10;51.00;;;;;;5114287;28;20007;-60
2022/08/30 05:07:29;;;;;;;;;;;25.10;51.10;;;;;;5112650;28;19962;-60
2022/08/30 05:09:55;;;;;;;;;;;25.10;51.00;;;;;;5083972;28;20011;-60
2022/08/30 05:12:20;;;;;;;;;;;25.10;51.00;;;;;;5112385;28;20307;-60
2022/08/30 05:14:46;;;;;;;;;;;25.10;51.10;;;;;;5100360;28;19924;-60
2022/08/30 05:17:11;;;;;;;;;;;25.10;51.10;;;;;;5093598;28;19916;-60
2022/08/30 05:19:37;;;;;;;;;;;25.10;50.90;;;;;;5093078;28;19912;-60
2022/08/30 05:22:02;;;;;;;;;;;25.10;50.90;;;;;;5086255;28;19912;-60
2022/08/30 05:24:28;;;;;;;;;;;25.10;51.00;;;;;;5090699;28;19916;-60
2022/08/30 05:26:53;;;;;;;;;;;25.00;51.00;;;;;;5073405;28;19923;-60
2022/08/30 05:29:19;;;;;;;;;;;25.00;51.00;;;;;;5093150;28;20417;-60
2022/08/30 05:31:44;;;;;;;;;;;25.00;51.10;;;;;;5091207;28;20312;-60
2022/08/30 05:34:10;;;;;;;;;;;25.00;51.20;;;;;;5071605;28;19978;-60
2022/08/30 05:36:35;;;;;;;;;;;25.00;51.10;;;;;;5088605;28;19912;-60
2022/08/30 05:39:01;;;;;;;;;;;25.00;51.20;;;;;;5080224;28;20023;-60
2022/08/30 05:41:27;;;;;;;;;;;25.00;51.30;;;;;;5090682;28;19942;-60
2022/08/30 05:43:53;;;;;;;;;;;25.00;51.30;;;;;;5091518;28;19912;-60
2022/08/30 05:46:20;;;;;;;;;;;25.00;51.40;;;;;;5073842;28;19912;-60
2022/08/30 05:48:46;;;;;;;;;;;25.00;51.30;;;;;;5055679;28;20273;-60
2022/08/30 05:51:12;;;;;;;;;;;25.00;51.30;;;;;;5092548;28;19962;-60
2022/08/30 05:53:38;;;;;;;;;;;24.90;51.30;;;;;;5090715;28;19916;-60
2022/08/30 05:56:05;;;;;;;;;;;24.90;51.40;;;;;;5084631;28;20368;-60
2022/08/30 05:58:31;;;;;;;;;;;24.90;51.50;;;;;;5049917;28;20356;-60
2022/08/30 06:00:57;;;;;;;;;;;25.00;51.60;;;;;;5087750;28;20023;-60
2022/08/30 06:03:22;;;;;;;;;;;24.90;51.30;;;;;;5073552;28;19919;-60
2022/08/30 06:05:47;;;;;;;;;;;25.00;51.30;;;;;;5070687;28;19989;-60
2022/08/30 06:08:13;;;;;;;;;;;25.00;51.30;;;;;;5088725;28;19951;-61
2022/08/30 06:10:39;;;;;;;;;;;24.90;51.50;;;;;;5067074;28;19913;-60
2022/08/30 06:13:04;;;;;;;;;;;24.90;51.40;;;;;;5086723;28;19951;-61
2022/08/30 06:15:29;;;;;;;;;;;24.90;51.40;;;;;;5107637;28;19920;-61
2022/08/30 06:17:55;;;;;;;;;;;24.90;51.30;;;;;;5093106;28;19965;-60
2022/08/30 06:20:20;;;;;;;;;;;24.90;51.30;;;;;;5093372;28;19963;-60
2022/08/30 06:22:46;;;;;;;;;;;25.00;51.50;;;;;;5111631;28;19919;-60
2022/08/30 06:25:11;;;;;;;;;;;24.90;51.40;;;;;;5111426;28;19916;-61
2022/08/30 06:27:37;;;;;;;;;;;24.90;51.60;;;;;;5104186;28;19919;-60
2022/08/30 06:30:03;;;;;;;;;;;24.90;51.50;;;;;;5112540;28;19912;-60
2022/08/30 06:32:29;;;;;;;;;;;24.90;51.60;;;;;;5111426;28;20030;-60
2022/08/30 06:34:54;;;;;;;;;;;24.90;51.50;;;;;;5093294;28;20015;-61
2022/08/30 06:37:19;;;;;;;;;;;24.90;51.50;;;;;;5093148;28;19919;-60
2022/08/30 06:39:45;;;;;;;;;;;24.90;51.50;;;;;;5100152;28;19951;-60
2022/08/30 06:42:10;;;;;;;;;;;24.90;51.50;;;;;;5102145;28;20036;-60
2022/08/30 06:44:36;;;;;;;;;;;24.90;51.50;;;;;;5100687;28;19923;-60
2022/08/30 06:47:01;;;;;;;;;;;24.90;51.50;;;;;;5106481;28;19957;-61
2022/08/30 06:49:27;;;;;;;;;;;24.90;51.60;;;;;;5089671;28;19960;-60
2022/08/30 06:51:52;;;;;;;;;;;24.90;51.70;;;;;;5111732;28;20099;-60
2022/08/30 06:54:18;;;;;;;;;;;24.90;51.70;;;;;;5111061;28;19922;-60
2022/08/30 06:56:43;;;;;;;;;;;24.90;51.60;;;;;;5110090;27;20328;-61
2022/08/30 06:59:08;;;;;;;;;;;24.90;51.60;;;;;;5092227;28;20395;-60
2022/08/30 07:01:34;;;;;;;;;;;24.90;51.60;;;;;;5113086;28;19911;-60
2022/08/30 07:04:00;;;;;;;;;;;24.90;51.70;;;;;;5113251;28;19916;-60
2022/08/30 07:06:25;;;;;;;;;;;24.90;51.70;;;;;;5094528;28;20443;-60
2022/08/30 07:08:51;;;;;;;;;;;24.90;51.70;;;;;;5084618;28;19912;-60
2022/08/30 07:11:29;;;;;;;;;;;25.00;51.70;;;;;;5109874;28;19916;-60
2022/08/30 07:13:54;;;;;;;;;;;24.90;51.70;;;;;;5091175;28;20023;-60
2022/08/30 07:16:20;;;;;;;;;;;24.90;51.80;;;;;;5076162;28;20050;-60
2022/08/30 07:18:54;;;;;;;;;;;24.90;51.90;;;;;;5089662;28;19927;-60
2022/08/30 07:21:21;;;;;;;;;;;24.90;51.90;;;;;;5085343;28;19966;-60
2022/08/30 07:23:48;;;;;;;;;;;24.90;52.00;;;;;;5083706;28;19916;-60
2022/08/30 07:26:14;;;;;;;;;;;24.80;52.10;;;;;;5087817;28;19938;-62
2022/08/30 07:28:40;;;;;;;;;;;24.80;52.20;;;;;;5084642;28;20490;-62
2022/08/30 07:31:05;;;;;;;;;;;24.70;52.40;;;;;;5088952;28;20392;-62
2022/08/30 07:33:31;;;;;;;;;;;24.70;52.70;;;;;;5091406;28;19984;-61
2022/08/30 07:35:58;;;;;;;;;;;24.70;52.80;;;;;;5109677;28;19941;-61
2022/08/30 07:38:24;;;;;;;;;;;24.60;53.00;;;;;;5105203;28;19911;-61
2022/08/30 07:40:49;;;;;;;;;;;24.70;53.20;;;;;;5110530;28;19912;-62
2022/08/30 07:43:14;;;;;;;;;;;24.60;53.30;;;;;;5092120;28;19919;-62
2022/08/30 07:45:40;;;;;;;;;;;24.60;53.30;;;;;;5111170;28;19911;-61
2022/08/30 07:48:06;;;;;;;;;;;24.60;53.60;;;;;;5110974;28;19953;-62
2022/08/30 07:50:31;;;;;;;;;;;24.60;53.60;;;;;;5092976;28;19919;-63
2022/08/30 07:52:57;;;;;;;;;;;24.60;53.60;;;;;;5112173;28;20286;-61
2022/08/30 07:55:22;;;;;;;;;;;24.70;53.80;;;;;;5091840;28;19990;-62
2022/08/30 07:57:48;;;;;;;;;;;24.70;53.70;;;;;;5076403;28;19912;-60
2022/08/30 08:00:14;;;;;;;;;;;24.60;53.90;;;;;;5106096;28;19912;-59
2022/08/30 08:02:40;;;;;;;;;;;24.50;53.80;;;;;;5106307;28;19916;-59
2022/08/30 08:05:07;;;;;;;;;;;24.60;54.00;;;;;;5110523;28;19912;-61
2022/08/30 08:07:32;;;;;;;;;;;24.50;54.00;;;;;;5109819;28;20474;-62
2022/08/30 08:09:58;;;;;;;;;;;24.50;54.20;;;;;;5091974;28;19998;-61
2022/08/30 08:12:23;;;;;;;;;;;24.50;54.40;;;;;;5110173;28;19936;-60
2022/08/30 08:14:49;;;;;;;;;;;24.50;54.50;;;;;;5108665;28;19931;-61
2022/08/30 08:17:14;;;;;;;;;;;24.50;54.50;;;;;;5092718;28;19907;-62
2022/08/30 08:19:40;;;;;;;;;;;24.50;54.60;;;;;;5075860;28;19931;-61
2022/08/30 08:22:05;;;;;;;;;;;24.40;54.50;;;;;;5110335;28;20002;-60
2022/08/30 08:24:31;;;;;;;;;;;24.50;54.80;;;;;;5110949;28;19991;-61
2022/08/30 08:26:56;;;;;;;;;;;24.40;54.70;;;;;;5092785;28;19919;-60
2022/08/30 08:29:22;;;;;;;;;;;24.40;54.70;;;;;;5091585;28;20340;-60
2022/08/30 08:31:47;;;;;;;;;;;24.40;54.80;;;;;;5092815;28;19995;-61
2022/08/30 08:34:13;;;;;;;;;;;24.50;54.70;;;;;;5110903;28;19954;-61
2022/08/30 08:36:39;;;;;;;;;;;24.50;54.70;;;;;;5092232;28;20260;-59
2022/08/30 08:39:05;;;;;;;;;;;24.50;54.70;;;;;;5102288;28;19912;-61
2022/08/30 08:41:49;;;;;;;;;;;24.50;54.70;;;;;;5089766;28;19912;-62
2022/08/30 08:44:41;;;;;;;;;;;24.50;54.80;;;;;;5107487;28;19919;-62
2022/08/30 08:47:12;;;;;;;;;;;24.50;54.80;;;;;;5063616;28;19961;-62
2022/08/30 08:49:38;;;;;;;;;;;24.50;54.70;;;;;;5110914;28;19912;-62
2022/08/30 08:54:55;;;;;;;;;;;24.50;54.80;;;;;;5093581;28;19923;-61
2022/08/30 08:57:20;;;;;;;;;;;24.60;54.80;;;;;;5092254;28;20367;-61
2022/08/30 08:59:47;;;;;;;;;;;24.60;54.70;;;;;;5105857;28;19977;-62
2022/08/30 09:02:25;;;;;;;;;;;24.60;54.50;;;;;;5109576;28;19912;-61
2022/08/30 09:04:55;;;;;;;;;;;24.70;54.70;;;;;;5089187;28;19911;-61
2022/08/30 09:07:22;;;;;;;;;;;24.60;54.60;;;;;;5086981;28;20049;-61
2022/08/30 09:09:47;;;;;;;;;;;24.50;54.70;;;;;;5083506;28;20041;-61
2022/08/30 09:12:12;;;;;;;;;;;24.50;54.70;;;;;;5114558;28;20010;-61
2022/08/30 09:14:39;;;;;;;;;;;24.60;54.80;;;;;;5099783;28;19927;-62
2022/08/30 09:17:08;;;;;;;;;;;24.50;54.70;;;;;;5075754;28;19912;-61
2022/08/30 09:19:34;;;;;;;;;;;24.60;54.60;;;;;;5093994;28;19914;-61
2022/08/30 09:22:00;;;;;;;;;;;24.60;54.50;;;;;;5075369;28;19915;-62
2022/08/30 09:24:32;;;;;;;;;;;24.70;54.50;;;;;;5058858;28;19908;-60
2022/08/30 09:26:57;;;;;;;;;;;24.60;54.40;;;;;;5082325;28;19923;-61
2022/08/30 09:29:22;;;;;;;;;;;24.70;54.50;;;;;;5074779;28;19912;-60
2022/08/30 09:31:50;;;;;;;;;;;24.70;54.60;;;;;;5093287;28;19915;-61
2022/08/30 09:34:16;;;;;;;;;;;24.70;54.60;;;;;;5093712;28;19993;-59
2022/08/30 09:36:42;;;;;;;;;;;24.60;55.20;;;;;;5068000;28;19909;-60
2022/08/30 09:39:18;;;;;;;;;;;24.60;54.70;;;;;;5091957;28;20958;-60
2022/08/30 09:41:44;;;;;;;;;;;24.50;54.70;;;;;;5075541;28;20061;-61
2022/08/30 09:44:14;;;;;;;;;;;24.50;54.80;;;;;;5067933;28;19916;-61
2022/08/30 09:46:47;;;;;;;;;;;24.50;54.80;;;;;;5070670;28;19983;-61
2022/08/30 09:49:31;;;;;;;;;;;24.50;54.90;;;;;;5093451;28;19915;-61
2022/08/30 09:52:17;;;;;;;;;;;24.60;54.90;;;;;;5093126;28;19912;-61
2022/08/30 09:54:45;;;;;;;;;;;24.60;54.80;;;;;;5073829;28;20839;-62
2022/08/30 09:57:14;;;;;;;;;;;24.60;54.80;;;;;;5092955;28;20383;-62
2022/08/30 09:59:45;;;;;;;;;;;24.60;54.70;;;;;;5093253;28;20329;-62
2022/08/30 10:02:23;;;;;;;;;;;24.60;54.80;;;;;;5072656;28;20353;-62
2022/08/30 10:04:53;;;;;;;;;;;24.60;54.90;;;;;;5089333;28;19919;-62
2022/08/30 10:07:20;;;;;;;;;;;24.60;54.80;;;;;;5071357;28;19978;-60
2022/08/30 10:10:04;;;;;;;;;;;24.60;54.80;;;;;;5092665;28;19934;-61
2022/08/30 10:12:41;;;;;;;;;;;24.60;54.80;;;;;;5092761;28;19912;-61
2022/08/30 10:15:13;;;;;;;;;;;24.70;54.80;;;;;;5104187;28;19954;-61
2022/08/30 10:17:46;;;;;;;;;;;24.60;54.80;;;;;;5067829;28;19915;-61
2022/08/30 10:20:17;;;;;;;;;;;24.70;54.70;;;;;;5107316;28;20287;-61
2022/08/30 10:22:47;;;;;;;;;;;24.70;54.60;;;;;;5105882;28;20010;-59
2022/08/30 10:25:15;;;;;;;;;;;24.70;54.50;;;;;;5087380;28;20352;-61
2022/08/30 10:27:42;;;;;;;;;;;24.70;54.50;;;;;;5074621;28;19912;-61
2022/08/30 10:30:09;;;;;;;;;;;24.70;54.50;;;;;;5088761;28;20332;-61
2022/08/30 10:32:40;;;;;;;;;;;24.70;54.40;;;;;;5089917;28;19916;-60
2022/08/30 10:35:26;;;;;;;;;;;24.70;54.40;;;;;;5090430;28;19916;-61
2022/08/30 10:37:57;;;;;;;;;;;24.70;54.50;;;;;;5102154;28;19915;-59
2022/08/30 10:43:14;;;;;;;;;;;24.70;54.50;;;;;;5095251;28;19919;-62
2022/08/30 10:45:40;;;;;;;;;;;24.70;54.30;;;;;;5094460;28;19966;-61
2022/08/30 10:48:08;;;;;;;;;;;24.70;54.50;;;;;;5094386;28;20301;-59
2022/08/30 10:50:39;;;;;;;;;;;24.70;54.50;;;;;;5091586;28;20390;-60
2022/08/30 10:53:06;;;;;;;;;;;24.70;54.50;;;;;;5081452;28;20368;-61
2022/08/30 10:55:32;;;;;;;;;;;24.70;54.30;;;;;;5082631;28;20347;-62
2022/08/30 10:57:59;;;;;;;;;;;24.70;54.10;;;;;;5094446;28;20007;-62
2022/08/30 11:00:28;;;;;;;;;;;24.70;54.10;;;;;;5092893;28;19919;-62
2022/08/30 11:03:11;;;;;;;;;;;24.80;54.10;;;;;;5093954;28;19918;-61
2022/08/30 11:05:39;;;;;;;;;;;24.80;53.90;;;;;;5092651;28;19935;-62
2022/08/30 11:08:10;;;;;;;;;;;24.90;53.90;;;;;;5109647;28;20422;-59
2022/08/30 11:10:39;;;;;;;;;;;24.90;53.80;;;;;;5106640;28;20424;-61
2022/08/30 11:13:12;;;;;;;;;;;24.90;53.50;;;;;;5111579;28;19908;-59
2022/08/30 11:16:01;;;;;;;;;;;25.00;53.30;;;;;;5111749;28;20014;-61
2022/08/30 11:18:31;;;;;;;;;;;25.00;52.90;;;;;;5098125;28;19908;-62
2022/08/30 11:21:15;;;;;;;;;;;25.10;52.90;;;;;;5091213;28;19968;-61
2022/08/30 11:23:41;;;;;;;;;;;25.10;52.90;;;;;;5085846;28;19945;-62
2022/08/30 11:26:07;;;;;;;;;;;25.10;52.90;;;;;;5089403;28;20762;-62
2022/08/30 11:28:36;;;;;;;;;;;25.20;53.20;;;;;;5090884;28;19993;-61
2022/08/30 11:31:16;;;;;;;;;;;25.20;53.20;;;;;;5111704;28;20001;-62
2022/08/30 11:33:48;;;;;;;;;;;25.20;53.10;;;;;;5111590;28;19916;-61
2022/08/30 11:36:31;;;;;;;;;;;25.20;53.00;;;;;;5111435;28;19999;-61
2022/08/30 11:39:15;;;;;;;;;;;25.20;52.90;;;;;;5106798;28;19912;-59
2022/08/30 11:41:44;;;;;;;;;;;25.20;53.00;;;;;;5110710;28;19907;-61
2022/08/30 11:44:16;;;;;;;;;;;25.10;53.00;;;;;;5076475;28;19951;-61
2022/08/30 11:46:42;;;;;;;;;;;25.10;53.00;;;;;;5110902;28;19914;-61
2022/08/30 11:49:13;;;;;;;;;;;25.10;53.10;;;;;;5108558;28;19912;-61
2022/08/30 11:51:43;;;;;;;;;;;25.10;53.10;;;;;;5108868;28;20013;-61
2022/08/30 11:54:11;;;;;;;;;;;25.10;53.20;;;;;;5089809;28;20006;-62
2022/08/30 11:56:46;;;;;;;;;;;25.20;53.00;;;;;;5102924;28;19916;-61
2022/08/30 11:59:31;;;;;;;;;;;25.20;53.00;;;;;;5088029;28;19959;-60
2022/08/30 12:01:57;;;;;;;;;;;25.20;52.90;;;;;;5108551;28;20002;-60
2022/08/30 12:04:36;;;;;;;;;;;25.20;53.00;;;;;;5102913;28;19958;-62
2022/08/30 12:07:05;;;;;;;;;;;25.30;53.00;;;;;;5093020;28;19908;-63
2022/08/30 12:09:31;;;;;;;;;;;25.30;53.00;;;;;;5106265;28;19907;-62
2022/08/30 12:12:07;;;;;;;;;;;25.40;52.80;;;;;;5092433;28;19912;-62
2022/08/30 12:14:50;;;;;;;;;;;25.40;52.80;;;;;;5095030;28;19932;-62
2022/08/30 12:20:00;;;;;;;;;;;25.40;52.40;;;;;;5111985;28;19916;-62
2022/08/30 12:22:29;;;;;;;;;;;25.50;52.40;;;;;;5090316;28;19908;-62
2022/08/30 12:24:54;;;;;;;;;;;25.50;52.20;;;;;;5072876;28;19920;-62
2022/08/30 12:27:30;;;;;;;;;;;25.60;52.00;;;;;;5085641;28;19973;-62
2022/08/30 12:29:58;;;;;;;;;;;25.60;51.80;;;;;;5100811;28;19951;-62
2022/08/30 12:32:23;;;;;;;;;;;25.60;51.90;;;;;;5109968;28;19914;-61
2022/08/30 12:34:50;;;;;;;;;;;25.60;51.90;;;;;;5104413;28;20002;-62
2022/08/30 12:37:22;;;;;;;;;;;25.60;51.60;;;;;;5098744;28;19944;-61
2022/08/30 12:39:49;;;;;;;;;;;25.60;51.60;;;;;;5101367;28;20006;-61
2022/08/30 12:42:18;;;;;;;;;;;25.60;51.60;;;;;;5109517;28;19918;-61
2022/08/30 12:44:44;;;;;;;;;;;25.60;51.50;;;;;;5094072;28;19923;-61
2022/08/30 12:47:11;;;;;;;;;;;25.60;51.60;;;;;;5097933;28;20364;-61
2022/08/30 12:49:36;;;;;;;;;;;25.70;51.70;;;;;;5095643;28;20015;-61
2022/08/30 12:52:17;;;;;;;;;;;25.70;51.60;;;;;;5078324;28;20443;-61
2022/08/30 12:54:44;;;;;;;;;;;25.70;51.40;;;;;;5088398;28;19916;-62
2022/08/30 12:57:10;;;;;;;;;;;25.60;51.60;;;;;;5094717;28;19931;-61
2022/08/30 12:59:37;;;;;;;;;;;25.70;51.30;;;;;;5105507;28;19920;-62
2022/08/30 13:02:15;;;;;;;;;;;25.70;51.30;;;;;;5107914;28;19912;-62
2022/08/30 13:04:41;;;;;;;;;;;25.70;51.20;;;;;;5084881;28;19991;-60
2022/08/30 13:07:07;;;;;;;;;;;25.80;51.20;;;;;;5093992;28;20349;-61
2022/08/30 13:09:34;;;;;;;;;;;25.80;51.40;;;;;;5099994;28;20001;-61
2022/08/30 13:11:59;;;;;;;;;;;25.80;51.30;;;;;;5091959;28;19916;-61
2022/08/30 13:14:31;;;;;;;;;;;25.80;51.00;;;;;;5094909;28;19919;-61
2022/08/30 13:17:07;;;;;;;;;;;25.80;50.80;;;;;;5110193;28;19992;-61
2022/08/30 13:19:33;;;;;;;;;;;25.80;50.80;;;;;;5108959;28;20006;-60
2022/08/30 13:21:59;;;;;;;;;;;25.80;50.70;;;;;;5114247;28;19922;-63
2022/08/30 13:24:24;;;;;;;;;;;25.80;50.70;;;;;;5095416;28;19933;-61
2022/08/30 13:26:50;;;;;;;;;;;25.80;50.60;;;;;;5095806;28;19940;-62
2022/08/30 13:29:16;;;;;;;;;;;25.90;50.30;;;;;;5089852;28;19908;-61
2022/08/30 13:31:42;;;;;;;;;;;25.90;50.30;;;;;;5106760;28;19916;-61
2022/08/30 13:34:07;;;;;;;;;;;25.90;50.10;;;;;;5095864;28;20268;-61
2022/08/30 13:36:33;;;;;;;;;;;25.90;50.20;;;;;;5113607;28;20010;-62
2022/08/30 13:38:59;;;;;;;;;;;25.90;50.70;;;;;;5090932;28;19911;-62
2022/08/30 13:41:25;;;;;;;;;;;25.90;50.00;;;;;;5095961;28;19912;-62
2022/08/30 13:43:50;;;;;;;;;;;25.90;50.10;;;;;;5113814;28;20426;-61
2022/08/30 13:46:16;;;;;;;;;;;25.90;50.00;;;;;;5111936;28;19990;-61
2022/08/30 13:48:41;;;;;;;;;;;26.00;49.70;;;;;;5110961;28;19912;-62
2022/08/30 13:51:07;;;;;;;;;;;26.00;49.80;;;;;;5113682;28;19912;-62
2022/08/30 13:53:33;;;;;;;;;;;25.90;49.70;;;;;;5095294;28;19907;-62
2022/08/30 13:55:59;;;;;;;;;;;25.80;49.80;;;;;;5093761;28;19912;-63
2022/08/30 13:58:24;;;;;;;;;;;25.80;49.70;;;;;;5113532;28;19924;-61
2022/08/30 14:00:50;;;;;;;;;;;25.80;49.60;;;;;;5090291;28;19914;-62
2022/08/30 14:03:15;;;;;;;;;;;25.70;49.40;;;;;;5093482;28;19911;-61
2022/08/30 14:05:41;;;;;;;;;;;25.70;49.40;;;;;;5112379;28;20366;-62
2022/08/30 14:08:07;;;;;;;;;;;25.60;49.40;;;;;;5113261;28;20287;-62
2022/08/30 14:10:33;;;;;;;;;;;25.60;49.30;;;;;;5094299;28;19958;-63
2022/08/30 14:12:58;;;;;;;;;;;25.60;49.30;;;;;;5095314;28;19933;-62
2022/08/30 14:15:24;;;;;;;;;;;25.70;49.40;;;;;;5093042;28;19923;-63
2022/08/30 14:17:49;;;;;;;;;;;25.70;49.00;;;;;;5113379;28;19912;-59
2022/08/30 14:20:15;;;;;;;;;;;25.80;49.10;;;;;;5094127;28;19957;-62
2022/08/30 14:22:40;;;;;;;;;;;25.90;48.90;;;;;;5113346;28;19915;-62
2022/08/30 14:25:06;;;;;;;;;;;25.90;48.60;;;;;;5113056;28;19907;-61
2022/08/30 14:27:31;;;;;;;;;;;25.90;48.50;;;;;;5113248;28;20007;-62
2022/08/30 14:29:57;;;;;;;;;;;26.00;48.20;;;;;;5095035;28;19916;-63